sensor_id;sensor_type;location;lat;lon;timestamp;pressure;altitude;pressure_sealevel;temperature;humidity
51439;BME280;38816;51.142;-0.974;2023-09-19T00:02:18;99373.94;;;11.79;100.00
51439;BME280;38816;51.142;-0.974;2023-09-19T00:04:43;99367.06;;;11.79;100.00
51439;BME280;38816;51.142;-0.974;2023-09-19T00:07:09;99373.94;;;11.77;100.00
51439;BME280;38816;51.142;-0.974;2023-09-19T00:09:35;99366.22;;;11.74;100.00
51439;BME280;38816;51.142;-0.974;2023-09-19T00:12:05;99371.38;;;11.70;100.00
51439;BME280;38816;51.142;-0.974;2023-09-19T00:14:31;99360.22;;;11.69;100.00
51439;BME280;38816;51.142;-0.974;2023-09-19T00:16:59;99355.94;;;11.71;100.00
51439;BME280;38816;51.142;-0.974;2023-09-19T00:19:26;99357.66;;;11.69;100.00
51439;BME280;38816;51.142;-0.974;2023-09-19T00:21:51;99355.97;;;11.66;100.00
51439;BME280;38816;51.142;-0.974;2023-09-19T00:24:18;99361.09;;;11.65;100.00
51439;BME280;38816;51.142;-0.974;2023-09-19T00:26:43;99362.78;;;11.66;100.00
51439;BME280;38816;51.142;-0.974;2023-09-19T00:29:09;99376.53;;;11.65;100.00
51439;BME280;38816;51.142;-0.974;2023-09-19T00:31:34;99379.97;;;11.67;100.00
51439;BME280;38816;51.142;-0.974;2023-09-19T00:34:02;99376.56;;;11.66;100.00
51439;BME280;38816;51.142;-0.974;2023-09-19T00:36:29;99374.81;;;11.64;100.00
51439;BME280;38816;51.142;-0.974;2023-09-19T00:38:55;99367.97;;;11.63;100.00
51439;BME280;38816;51.142;-0.974;2023-09-19T00:41:20;99378.28;;;11.63;100.00
51439;BME280;38816;51.142;-0.974;2023-09-19T00:43:46;99373.09;;;11.66;100.00
51439;BME280;38816;51.142;-0.974;2023-09-19T00:46:17;99383.38;;;11.66;100.00
51439;BME280;38816;51.142;-0.974;2023-09-19T00:48:42;99378.25;;;11.66;100.00
51439;BME280;38816;51.142;-0.974;2023-09-19T00:51:11;99376.53;;;11.68;100.00
51439;BME280;38816;51.142;-0.974;2023-09-19T00:53:39;99373.09;;;11.69;100.00
51439;BME280;38816;51.142;-0.974;2023-09-19T00:56:05;99381.66;;;11.74;100.00
51439;BME280;38816;51.142;-0.974;2023-09-19T00:58:32;99379.97;;;11.73;100.00
51439;BME280;38816;51.142;-0.974;2023-09-19T01:00:59;99387.69;;;11.73;100.00
51439;BME280;38816;51.142;-0.974;2023-09-19T01:03:24;99388.56;;;11.75;100.00
51439;BME280;38816;51.142;-0.974;2023-09-19T01:05:50;99390.25;;;11.76;100.00
51439;BME280;38816;51.142;-0.974;2023-09-19T01:08:16;99397.13;;;11.76;100.00
51439;BME280;38816;51.142;-0.974;2023-09-19T01:11:03;99393.69;;;11.75;100.00
51439;BME280;38816;51.142;-0.974;2023-09-19T01:16:50;99379.09;;;11.77;100.00
51439;BME280;38816;51.142;-0.974;2023-09-19T01:25:46;99379.94;;;11.70;100.00
51439;BME280;38816;51.142;-0.974;2023-09-19T01:28:31;99375.69;;;11.61;100.00
51439;BME280;38816;51.142;-0.974;2023-09-19T01:31:02;99380.84;;;11.57;100.00
51439;BME280;38816;51.142;-0.974;2023-09-19T01:33:47;99381.69;;;11.56;100.00
51439;BME280;38816;51.142;-0.974;2023-09-19T01:36:16;99377.41;;;11.52;100.00
51439;BME280;38816;51.142;-0.974;2023-09-19T01:38:42;99367.97;;;11.48;100.00
51439;BME280;38816;51.142;-0.974;2023-09-19T01:41:11;99376.56;;;11.47;100.00
51439;BME280;38816;51.142;-0.974;2023-09-19T01:43:45;99367.16;;;11.49;100.00
51439;BME280;38816;51.142;-0.974;2023-09-19T01:46:19;99379.16;;;11.50;100.00
51439;BME280;38816;51.142;-0.974;2023-09-19T01:51:56;99378.28;;;11.49;100.00
51439;BME280;38816;51.142;-0.974;2023-09-19T01:54:36;99373.13;;;11.51;100.00
51439;BME280;38816;51.142;-0.974;2023-09-19T01:57:20;99368.84;;;11.54;100.00
51439;BME280;38816;51.142;-0.974;2023-09-19T01:59:54;99363.69;;;11.50;100.00
51439;BME280;38816;51.142;-0.974;2023-09-19T02:02:22;99368.00;;;11.54;100.00
51439;BME280;38816;51.142;-0.974;2023-09-19T02:04:49;99366.25;;;11.59;100.00
51439;BME280;38816;51.142;-0.974;2023-09-19T02:07:16;99374.81;;;11.64;100.00
51439;BME280;38816;51.142;-0.974;2023-09-19T02:09:42;99372.25;;;11.65;100.00
51439;BME280;38816;51.142;-0.974;2023-09-19T02:12:09;99385.13;;;11.64;100.00
51439;BME280;38816;51.142;-0.974;2023-09-19T02:14:34;99375.69;;;11.57;100.00
51439;BME280;38816;51.142;-0.974;2023-09-19T02:17:02;99373.13;;;11.51;100.00
51439;BME280;38816;51.142;-0.974;2023-09-19T02:19:30;99373.13;;;11.48;100.00
51439;BME280;38816;51.142;-0.974;2023-09-19T02:21:57;99374.00;;;11.45;100.00
51439;BME280;38816;51.142;-0.974;2023-09-19T02:24:22;99366.28;;;11.45;100.00
51439;BME280;38816;51.142;-0.974;2023-09-19T02:26:52;99371.41;;;11.48;100.00
51439;BME280;38816;51.142;-0.974;2023-09-19T02:29:17;99370.56;;;11.45;100.00
51439;BME280;38816;51.142;-0.974;2023-09-19T02:31:43;99368.00;;;11.41;100.00
51439;BME280;38816;51.142;-0.974;2023-09-19T02:34:08;99362.84;;;11.41;100.00
51439;BME280;38816;51.142;-0.974;2023-09-19T02:36:37;99372.28;;;11.43;100.00
51439;BME280;38816;51.142;-0.974;2023-09-19T02:39:02;99374.88;;;11.44;100.00
51439;BME280;38816;51.142;-0.974;2023-09-19T02:41:30;99373.97;;;11.51;100.00
51439;BME280;38816;51.142;-0.974;2023-09-19T02:43:57;99376.56;;;11.56;100.00
51439;BME280;38816;51.142;-0.974;2023-09-19T02:46:23;99386.84;;;11.60;100.00
51439;BME280;38816;51.142;-0.974;2023-09-19T02:48:48;99375.69;;;11.61;100.00
51439;BME280;38816;51.142;-0.974;2023-09-19T02:51:14;99362.81;;;11.60;100.00
51439;BME280;38816;51.142;-0.974;2023-09-19T02:53:39;99362.81;;;11.63;100.00
51439;BME280;38816;51.142;-0.974;2023-09-19T02:56:05;99373.97;;;11.65;100.00
51439;BME280;38816;51.142;-0.974;2023-09-19T02:58:30;99370.53;;;11.66;100.00
51439;BME280;38816;51.142;-0.974;2023-09-19T03:01:08;99369.66;;;11.69;100.00
51439;BME280;38816;51.142;-0.974;2023-09-19T03:03:33;99364.50;;;11.70;100.00
51439;BME280;38816;51.142;-0.974;2023-09-19T03:05:59;99363.66;;;11.73;100.00
51439;BME280;38816;51.142;-0.974;2023-09-19T03:08:24;99365.38;;;11.75;100.00
51439;BME280;38816;51.142;-0.974;2023-09-19T03:10:50;99361.06;;;11.80;100.00
51439;BME280;38816;51.142;-0.974;2023-09-19T03:13:15;99359.38;;;11.82;100.00
51439;BME280;38816;51.142;-0.974;2023-09-19T03:15:42;99356.78;;;11.85;100.00
51439;BME280;38816;51.142;-0.974;2023-09-19T03:18:12;99342.22;;;11.84;100.00
51439;BME280;38816;51.142;-0.974;2023-09-19T03:20:38;99355.06;;;11.87;100.00
51439;BME280;38816;51.142;-0.974;2023-09-19T03:23:04;99343.03;;;11.88;100.00
51439;BME280;38816;51.142;-0.974;2023-09-19T03:25:30;99345.63;;;11.89;100.00
51439;BME280;38816;51.142;-0.974;2023-09-19T03:27:56;99340.47;;;11.91;100.00
51439;BME280;38816;51.142;-0.974;2023-09-19T03:30:23;99349.03;;;11.93;100.00
51439;BME280;38816;51.142;-0.974;2023-09-19T03:32:49;99346.44;;;11.96;100.00
51439;BME280;38816;51.142;-0.974;2023-09-19T03:35:15;99337.88;;;11.99;100.00
51439;BME280;38816;51.142;-0.974;2023-09-19T03:37:42;99333.56;;;12.02;100.00
51439;BME280;38816;51.142;-0.974;2023-09-19T03:40:09;99330.97;;;12.01;100.00
51439;BME280;38816;51.142;-0.974;2023-09-19T03:42:38;99330.97;;;12.02;100.00
51439;BME280;38816;51.142;-0.974;2023-09-19T03:45:04;99320.69;;;11.99;100.00
51439;BME280;38816;51.142;-0.974;2023-09-19T03:47:31;99328.41;;;12.04;100.00
51439;BME280;38816;51.142;-0.974;2023-09-19T03:49:56;99318.97;;;12.03;100.00
51439;BME280;38816;51.142;-0.974;2023-09-19T03:52:22;99318.09;;;12.02;100.00
51439;BME280;38816;51.142;-0.974;2023-09-19T03:54:47;99311.22;;;12.03;100.00
51439;BME280;38816;51.142;-0.974;2023-09-19T03:57:13;99300.94;;;12.03;100.00
51439;BME280;38816;51.142;-0.974;2023-09-19T03:59:41;99306.03;;;12.09;100.00
51439;BME280;38816;51.142;-0.974;2023-09-19T04:02:08;99297.44;;;12.10;100.00
51439;BME280;38816;51.142;-0.974;2023-09-19T04:04:37;99296.59;;;12.12;100.00
51439;BME280;38816;51.142;-0.974;2023-09-19T04:07:03;99294.84;;;12.18;100.00
51439;BME280;38816;51.142;-0.974;2023-09-19T04:09:28;99288.78;;;12.20;100.00
51439;BME280;38816;51.142;-0.974;2023-09-19T04:11:54;99278.47;;;12.25;100.00
51439;BME280;38816;51.142;-0.974;2023-09-19T04:14:19;99269.81;;;12.33;100.00
51439;BME280;38816;51.142;-0.974;2023-09-19T04:16:44;99262.06;;;12.39;100.00
51439;BME280;38816;51.142;-0.974;2023-09-19T04:19:10;99264.59;;;12.46;100.00
51439;BME280;38816;51.142;-0.974;2023-09-19T04:21:35;99250.81;;;12.50;100.00
51439;BME280;38816;51.142;-0.974;2023-09-19T04:24:00;99248.25;;;12.50;100.00
51439;BME280;38816;51.142;-0.974;2023-09-19T04:26:26;99256.81;;;12.50;100.00
51439;BME280;38816;51.142;-0.974;2023-09-19T04:28:51;99245.66;;;12.50;100.00
51439;BME280;38816;51.142;-0.974;2023-09-19T04:31:17;99243.06;;;12.51;100.00
51439;BME280;38816;51.142;-0.974;2023-09-19T04:33:43;99254.19;;;12.59;100.00
51439;BME280;38816;51.142;-0.974;2023-09-19T04:36:09;99244.69;;;12.64;100.00
51439;BME280;38816;51.142;-0.974;2023-09-19T04:38:35;99244.63;;;12.75;100.00
51439;BME280;38816;51.142;-0.974;2023-09-19T04:41:00;99248.00;;;12.79;100.00
51439;BME280;38816;51.142;-0.974;2023-09-19T04:43:26;99250.53;;;12.88;100.00
51439;BME280;38816;51.142;-0.974;2023-09-19T04:45:51;99250.44;;;12.96;100.00
51439;BME280;38816;51.142;-0.974;2023-09-19T04:48:22;99243.50;;;13.02;100.00
51439;BME280;38816;51.142;-0.974;2023-09-19T04:50:49;99236.56;;;13.07;100.00
51439;BME280;38816;51.142;-0.974;2023-09-19T04:53:14;99232.22;;;13.12;100.00
51439;BME280;38816;51.142;-0.974;2023-09-19T04:55:40;99235.59;;;13.17;100.00
51439;BME280;38816;51.142;-0.974;2023-09-19T04:58:05;99241.59;;;13.24;100.00
51439;BME280;38816;51.142;-0.974;2023-09-19T05:00:30;99244.09;;;13.30;100.00
51439;BME280;38816;51.142;-0.974;2023-09-19T05:03:00;99244.91;;;13.35;100.00
51439;BME280;38816;51.142;-0.974;2023-09-19T05:05:26;99246.59;;;13.39;100.00
51439;BME280;38816;51.142;-0.974;2023-09-19T05:07:52;99240.50;;;13.47;100.00
51439;BME280;38816;51.142;-0.974;2023-09-19T05:10:19;99236.91;;;13.60;100.00
51439;BME280;38816;51.142;-0.974;2023-09-19T05:12:45;99224.78;;;13.65;100.00
51439;BME280;38816;51.142;-0.974;2023-09-19T05:15:13;99230.75;;;13.68;100.00
51439;BME280;38816;51.142;-0.974;2023-09-19T05:17:40;99230.69;;;13.73;100.00
51439;BME280;38816;51.142;-0.974;2023-09-19T05:20:06;99231.50;;;13.78;100.00
51439;BME280;38816;51.142;-0.974;2023-09-19T05:22:41;99234.88;;;13.83;100.00
51439;BME280;38816;51.142;-0.974;2023-09-19T05:25:08;99231.38;;;13.86;100.00
51439;BME280;38816;51.142;-0.974;2023-09-19T05:27:34;99230.41;;;13.94;100.00
51439;BME280;38816;51.142;-0.974;2023-09-19T05:29:59;99227.75;;;14.01;100.00
51439;BME280;38816;51.142;-0.974;2023-09-19T05:32:25;99221.66;;;14.06;100.00
51439;BME280;38816;51.142;-0.974;2023-09-19T05:34:50;99226.84;;;14.03;100.00
51439;BME280;38816;51.142;-0.974;2023-09-19T05:37:21;99222.59;;;14.01;100.00
51439;BME280;38816;51.142;-0.974;2023-09-19T05:39:47;99223.47;;;13.98;100.00
51439;BME280;38816;51.142;-0.974;2023-09-19T05:42:12;99220.94;;;13.97;100.00
51439;BME280;38816;51.142;-0.974;2023-09-19T05:44:38;99224.38;;;13.97;100.00
51439;BME280;38816;51.142;-0.974;2023-09-19T05:47:04;99215.84;;;13.89;100.00
51439;BME280;38816;51.142;-0.974;2023-09-19T05:49:29;99217.66;;;13.84;100.00
51439;BME280;38816;51.142;-0.974;2023-09-19T05:51:55;99208.13;;;13.87;100.00
51439;BME280;38816;51.142;-0.974;2023-09-19T05:54:21;99213.31;;;13.86;100.00
51439;BME280;38816;51.142;-0.974;2023-09-19T05:56:47;99215.88;;;13.86;100.00
51439;BME280;38816;51.142;-0.974;2023-09-19T05:59:13;99209.09;;;13.77;100.00
51439;BME280;38816;51.142;-0.974;2023-09-19T06:01:42;99212.47;;;13.82;100.00
51439;BME280;38816;51.142;-0.974;2023-09-19T06:04:07;99218.47;;;13.87;100.00
51439;BME280;38816;51.142;-0.974;2023-09-19T06:06:33;99213.25;;;13.90;100.00
51439;BME280;38816;51.142;-0.974;2023-09-19T06:09:02;99209.78;;;13.93;100.00
51439;BME280;38816;51.142;-0.974;2023-09-19T06:11:27;99208.91;;;13.94;100.00
51439;BME280;38816;51.142;-0.974;2023-09-19T06:13:54;99211.47;;;13.94;100.00
51439;BME280;38816;51.142;-0.974;2023-09-19T06:16:20;99208.84;;;13.96;100.00
51439;BME280;38816;51.142;-0.974;2023-09-19T06:18:45;99210.56;;;13.98;100.00
51439;BME280;38816;51.142;-0.974;2023-09-19T06:21:10;99207.88;;;14.06;100.00
51439;BME280;38816;51.142;-0.974;2023-09-19T06:23:36;99201.78;;;14.10;100.00
51439;BME280;38816;51.142;-0.974;2023-09-19T06:26:01;99193.97;;;14.13;100.00
51439;BME280;38816;51.142;-0.974;2023-09-19T06:28:27;99203.44;;;14.15;100.00
51439;BME280;38816;51.142;-0.974;2023-09-19T06:30:54;99198.25;;;14.15;100.00
51439;BME280;38816;51.142;-0.974;2023-09-19T06:33:20;99195.63;;;14.17;100.00
51439;BME280;38816;51.142;-0.974;2023-09-19T06:35:47;99194.72;;;14.21;100.00
51439;BME280;38816;51.142;-0.974;2023-09-19T06:38:13;99187.81;;;14.23;100.00
51439;BME280;38816;51.142;-0.974;2023-09-19T06:40:41;99202.31;;;14.30;100.00
51439;BME280;38816;51.142;-0.974;2023-09-19T06:43:10;99186.66;;;14.41;100.00
51439;BME280;38816;51.142;-0.974;2023-09-19T06:45:36;99180.53;;;14.45;100.00
51439;BME280;38816;51.142;-0.974;2023-09-19T06:48:01;99169.31;;;14.49;100.00
51439;BME280;38816;51.142;-0.974;2023-09-19T06:50:28;99170.16;;;14.51;100.00
51439;BME280;38816;51.142;-0.974;2023-09-19T06:52:56;99171.78;;;14.57;100.00
51439;BME280;38816;51.142;-0.974;2023-09-19T06:55:25;99171.72;;;14.60;100.00
51439;BME280;38816;51.142;-0.974;2023-09-19T06:57:54;99179.41;;;14.63;100.00
51439;BME280;38816;51.142;-0.974;2023-09-19T07:00:20;99179.50;;;14.60;100.00
51439;BME280;38816;51.142;-0.974;2023-09-19T07:03:07;99178.56;;;14.62;100.00
51439;BME280;38816;51.142;-0.974;2023-09-19T07:05:37;99175.13;;;14.62;100.00
51439;BME280;38816;51.142;-0.974;2023-09-19T07:08:04;99169.03;;;14.66;100.00
51439;BME280;38816;51.142;-0.974;2023-09-19T07:10:31;99174.97;;;14.71;100.00
51439;BME280;38816;51.142;-0.974;2023-09-19T07:13:04;99160.13;;;14.82;100.00
51439;BME280;38816;51.142;-0.974;2023-09-19T07:15:36;99157.53;;;14.82;100.00
51439;BME280;38816;51.142;-0.974;2023-09-19T07:18:05;99144.81;;;14.70;100.00
51439;BME280;38816;51.142;-0.974;2023-09-19T07:20:31;99150.03;;;14.67;100.00
51439;BME280;38816;51.142;-0.974;2023-09-19T07:23:01;99148.94;;;14.80;100.00
51439;BME280;38816;51.142;-0.974;2023-09-19T07:25:30;99146.00;;;14.99;100.00
51439;BME280;38816;51.142;-0.974;2023-09-19T07:27:57;99166.44;;;15.12;100.00
51439;BME280;38816;51.142;-0.974;2023-09-19T07:30:25;99167.28;;;15.14;100.00
51439;BME280;38816;51.142;-0.974;2023-09-19T07:32:52;99167.94;;;15.24;100.00
51439;BME280;38816;51.142;-0.974;2023-09-19T07:35:18;99151.28;;;15.37;100.00
51439;BME280;38816;51.142;-0.974;2023-09-19T07:37:46;99159.81;;;15.42;100.00
51439;BME280;38816;51.142;-0.974;2023-09-19T07:40:16;99157.97;;;15.48;100.00
51439;BME280;38816;51.142;-0.974;2023-09-19T07:42:41;99153.63;;;15.50;100.00
51439;BME280;38816;51.142;-0.974;2023-09-19T07:45:08;99165.78;;;15.46;100.00
51439;BME280;38816;51.142;-0.974;2023-09-19T07:47:34;99170.81;;;15.54;100.00
51439;BME280;38816;51.142;-0.974;2023-09-19T07:50:01;99144.81;;;15.58;100.00
51439;BME280;38816;51.142;-0.974;2023-09-19T07:52:28;99144.72;;;15.61;100.00
51439;BME280;38816;51.142;-0.974;2023-09-19T07:54:54;99149.84;;;15.66;100.00
51439;BME280;38816;51.142;-0.974;2023-09-19T07:57:20;99148.13;;;15.65;100.00
51439;BME280;38816;51.142;-0.974;2023-09-19T07:59:46;99135.94;;;15.70;100.00
51439;BME280;38816;51.142;-0.974;2023-09-19T08:02:11;99134.22;;;15.69;100.00
51439;BME280;38816;51.142;-0.974;2023-09-19T08:04:47;99121.13;;;15.77;100.00
51439;BME280;38816;51.142;-0.974;2023-09-19T08:07:14;99137.47;;;15.79;100.00
51439;BME280;38816;51.142;-0.974;2023-09-19T08:09:40;99145.19;;;15.82;100.00
51439;BME280;38816;51.142;-0.974;2023-09-19T08:12:06;99134.91;;;15.77;100.00
51439;BME280;38816;51.142;-0.974;2023-09-19T08:14:36;99134.78;;;15.83;100.00
51439;BME280;38816;51.142;-0.974;2023-09-19T08:17:01;99140.63;;;15.91;100.00
51439;BME280;38816;51.142;-0.974;2023-09-19T08:19:27;99128.47;;;15.93;100.00
51439;BME280;38816;51.142;-0.974;2023-09-19T08:21:57;99132.13;;;15.86;100.00
51439;BME280;38816;51.142;-0.974;2023-09-19T08:24:27;99134.72;;;15.85;100.00
51439;BME280;38816;51.142;-0.974;2023-09-19T08:26:54;99142.66;;;15.79;100.00
51439;BME280;38816;51.142;-0.974;2023-09-19T08:29:20;99125.34;;;15.79;100.00
51439;BME280;38816;51.142;-0.974;2023-09-19T08:31:45;99135.81;;;15.76;100.00
51439;BME280;38816;51.142;-0.974;2023-09-19T08:34:15;99121.75;;;15.86;100.00
51439;BME280;38816;51.142;-0.974;2023-09-19T08:36:40;99125.28;;;15.82;100.00
51439;BME280;38816;51.142;-0.974;2023-09-19T08:39:10;99139.06;;;15.84;100.00
51439;BME280;38816;51.142;-0.974;2023-09-19T08:41:36;99142.34;;;15.92;100.00
51439;BME280;38816;51.142;-0.974;2023-09-19T08:44:02;99139.63;;;15.99;100.00
51439;BME280;38816;51.142;-0.974;2023-09-19T08:46:30;99144.81;;;15.99;100.00
51439;BME280;38816;51.142;-0.974;2023-09-19T08:49:03;99141.88;;;16.12;100.00
51439;BME280;38816;51.142;-0.974;2023-09-19T08:51:43;99137.66;;;16.08;100.00
51439;BME280;38816;51.142;-0.974;2023-09-19T08:54:20;99145.75;;;15.94;100.00
51439;BME280;38816;51.142;-0.974;2023-09-19T08:56:48;99146.47;;;16.01;100.00
51439;BME280;38816;51.142;-0.974;2023-09-19T08:59:15;99135.09;;;16.07;100.00
51439;BME280;38816;51.142;-0.974;2023-09-19T09:01:41;99149.00;;;16.04;100.00
51439;BME280;38816;51.142;-0.974;2023-09-19T09:04:11;99150.00;;;15.99;100.00
51439;BME280;38816;51.142;-0.974;2023-09-19T09:06:38;99137.78;;;16.04;100.00
51439;BME280;38816;51.142;-0.974;2023-09-19T09:09:05;99166.28;;;16.04;100.00
51439;BME280;38816;51.142;-0.974;2023-09-19T09:11:35;99179.16;;;16.07;100.00
51439;BME280;38816;51.142;-0.974;2023-09-19T09:14:06;99163.00;;;16.33;100.00
51439;BME280;38816;51.142;-0.974;2023-09-19T09:16:33;99154.19;;;16.74;100.00
51439;BME280;38816;51.142;-0.974;2023-09-19T09:18:58;99170.25;;;16.88;100.00
51439;BME280;38816;51.142;-0.974;2023-09-19T09:21:25;99164.75;;;17.01;100.00
51439;BME280;38816;51.142;-0.974;2023-09-19T09:23:51;99161.13;;;17.06;100.00
51439;BME280;38816;51.142;-0.974;2023-09-19T09:26:17;99159.03;;;17.20;100.00
51439;BME280;38816;51.142;-0.974;2023-09-19T09:28:52;99160.66;;;17.23;100.00
51439;BME280;38816;51.142;-0.974;2023-09-19T09:31:23;99160.84;;;17.17;100.00
51439;BME280;38816;51.142;-0.974;2023-09-19T09:33:54;99168.72;;;17.14;100.00
51439;BME280;38816;51.142;-0.974;2023-09-19T09:36:33;99168.16;;;17.03;100.00
51439;BME280;38816;51.142;-0.974;2023-09-19T09:38:59;99168.44;;;16.92;100.00
51439;BME280;38816;51.142;-0.974;2023-09-19T09:41:40;99152.44;;;16.76;100.00
51439;BME280;38816;51.142;-0.974;2023-09-19T09:44:13;99167.38;;;16.65;100.00
51439;BME280;38816;51.142;-0.974;2023-09-19T09:46:43;99168.97;;;16.72;100.00
51439;BME280;38816;51.142;-0.974;2023-09-19T09:49:22;99172.13;;;16.83;100.00
51439;BME280;38816;51.142;-0.974;2023-09-19T09:52:04;99168.31;;;16.96;100.00
51439;BME280;38816;51.142;-0.974;2023-09-19T09:54:58;99158.50;;;17.08;100.00
51439;BME280;38816;51.142;-0.974;2023-09-19T09:57:24;99162.06;;;17.04;100.00
51439;BME280;38816;51.142;-0.974;2023-09-19T09:59:55;99137.97;;;16.99;100.00
51439;BME280;38816;51.142;-0.974;2023-09-19T10:04:55;99141.56;;;16.94;100.00
51439;BME280;38816;51.142;-0.974;2023-09-19T10:07:31;99142.66;;;17.17;100.00
51439;BME280;38816;51.142;-0.974;2023-09-19T10:10:15;99127.41;;;17.36;100.00
51439;BME280;38816;51.142;-0.974;2023-09-19T10:12:55;99123.28;;;17.58;100.00
51439;BME280;38816;51.142;-0.974;2023-09-19T10:15:31;99150.22;;;17.85;100.00
51439;BME280;38816;51.142;-0.974;2023-09-19T10:18:01;99130.66;;;18.00;100.00
51439;BME280;38816;51.142;-0.974;2023-09-19T10:20:30;99135.75;;;18.31;100.00
51439;BME280;38816;51.142;-0.974;2023-09-19T10:23:03;99135.34;;;18.43;100.00
51439;BME280;38816;51.142;-0.974;2023-09-19T10:25:37;99124.53;;;18.56;100.00
51439;BME280;38816;51.142;-0.974;2023-09-19T10:28:02;99112.94;;;18.64;100.00
51439;BME280;38816;51.142;-0.974;2023-09-19T10:30:32;99127.91;;;18.58;100.00
51439;BME280;38816;51.142;-0.974;2023-09-19T10:33:03;99111.84;;;18.45;100.00
51439;BME280;38816;51.142;-0.974;2023-09-19T10:35:29;99130.97;;;18.44;100.00
51439;BME280;38816;51.142;-0.974;2023-09-19T10:37:57;99146.34;;;18.25;100.00
51439;BME280;38816;51.142;-0.974;2023-09-19T10:40:22;99139.09;;;18.08;100.00
51439;BME280;38816;51.142;-0.974;2023-09-19T10:43:00;99143.94;;;17.92;100.00
51439;BME280;38816;51.142;-0.974;2023-09-19T10:45:28;99140.75;;;17.83;100.00
51439;BME280;38816;51.142;-0.974;2023-09-19T10:47:57;99143.66;;;17.72;100.00
51439;BME280;38816;51.142;-0.974;2023-09-19T10:50:23;99147.16;;;17.41;100.00
51439;BME280;38816;51.142;-0.974;2023-09-19T10:52:50;99156.63;;;17.13;100.00
51439;BME280;38816;51.142;-0.974;2023-09-19T10:55:27;99161.41;;;16.95;100.00
51439;BME280;38816;51.142;-0.974;2023-09-19T10:57:55;99152.25;;;16.82;100.00
51439;BME280;38816;51.142;-0.974;2023-09-19T11:00:23;99162.19;;;16.65;100.00
51439;BME280;38816;51.142;-0.974;2023-09-19T11:05:37;99170.66;;;16.37;100.00
51439;BME280;38816;51.142;-0.974;2023-09-19T11:08:07;99165.53;;;16.34;100.00
51439;BME280;38816;51.142;-0.974;2023-09-19T11:13:27;99166.25;;;16.41;100.00
51439;BME280;38816;51.142;-0.974;2023-09-19T11:27:10;99148.09;;;16.77;100.00
51439;BME280;38816;51.142;-0.974;2023-09-19T11:29:39;99160.94;;;16.81;100.00
51439;BME280;38816;51.142;-0.974;2023-09-19T11:32:05;99150.44;;;16.86;100.00
51439;BME280;38816;51.142;-0.974;2023-09-19T11:40:11;99155.31;;;16.98;100.00
51439;BME280;38816;51.142;-0.974;2023-09-19T11:42:43;99137.00;;;17.03;100.00
51439;BME280;38816;51.142;-0.974;2023-09-19T11:48:13;99153.81;;;17.20;100.00
51439;BME280;38816;51.142;-0.974;2023-09-19T11:50:42;99138.84;;;17.29;100.00
51439;BME280;38816;51.142;-0.974;2023-09-19T11:53:11;99139.88;;;17.23;100.00
51439;BME280;38816;51.142;-0.974;2023-09-19T11:55:38;99132.16;;;17.20;100.00
51439;BME280;38816;51.142;-0.974;2023-09-19T11:58:06;99139.16;;;17.18;100.00
51439;BME280;38816;51.142;-0.974;2023-09-19T12:00:34;99141.75;;;17.18;100.00
51439;BME280;38816;51.142;-0.974;2023-09-19T12:03:09;99125.28;;;17.19;100.00
51439;BME280;38816;51.142;-0.974;2023-09-19T12:05:35;99132.16;;;17.21;100.00
51439;BME280;38816;51.142;-0.974;2023-09-19T12:08:05;99133.91;;;17.19;100.00
51439;BME280;38816;51.142;-0.974;2023-09-19T12:10:47;99128.84;;;17.15;100.00
51439;BME280;38816;51.142;-0.974;2023-09-19T12:13:17;99120.72;;;17.27;100.00
51439;BME280;38816;51.142;-0.974;2023-09-19T12:15:43;99124.84;;;17.34;100.00
51439;BME280;38816;51.142;-0.974;2023-09-19T12:20:53;99130.63;;;17.44;100.00
51439;BME280;38816;51.142;-0.974;2023-09-19T12:23:19;99121.78;;;17.50;100.00
51439;BME280;38816;51.142;-0.974;2023-09-19T12:25:46;99122.69;;;17.49;100.00
51439;BME280;38816;51.142;-0.974;2023-09-19T12:28:14;99122.28;;;17.33;100.00
51439;BME280;38816;51.142;-0.974;2023-09-19T12:30:39;99126.88;;;17.25;100.00
51439;BME280;38816;51.142;-0.974;2023-09-19T12:33:19;99126.22;;;17.16;100.00
51439;BME280;38816;51.142;-0.974;2023-09-19T12:35:46;99116.94;;;17.08;100.00
51439;BME280;38816;51.142;-0.974;2023-09-19T12:40:51;99108.81;;;16.89;100.00
51439;BME280;38816;51.142;-0.974;2023-09-19T12:43:18;99118.25;;;16.91;100.00
51439;BME280;38816;51.142;-0.974;2023-09-19T12:45:44;99108.69;;;16.93;100.00
51439;BME280;38816;51.142;-0.974;2023-09-19T12:48:23;99097.41;;;16.94;100.00
51439;BME280;38816;51.142;-0.974;2023-09-19T12:51:09;99107.81;;;16.94;100.00
51439;BME280;38816;51.142;-0.974;2023-09-19T12:53:40;99105.75;;;17.06;100.00
51439;BME280;38816;51.142;-0.974;2023-09-19T12:56:08;99102.16;;;17.11;100.00
51439;BME280;38816;51.142;-0.974;2023-09-19T12:58:48;99109.88;;;17.13;100.00
51439;BME280;38816;51.142;-0.974;2023-09-19T13:01:15;99105.63;;;17.10;100.00
51439;BME280;38816;51.142;-0.974;2023-09-19T13:03:41;99102.28;;;17.05;100.00
51439;BME280;38816;51.142;-0.974;2023-09-19T13:06:07;99105.88;;;17.01;100.00
51439;BME280;38816;51.142;-0.974;2023-09-19T13:08:38;99110.31;;;16.98;100.00
51439;BME280;38816;51.142;-0.974;2023-09-19T13:11:09;99110.34;;;16.96;100.00
51439;BME280;38816;51.142;-0.974;2023-09-19T13:13:47;99103.38;;;16.98;100.00
51439;BME280;38816;51.142;-0.974;2023-09-19T13:16:21;99109.69;;;16.89;100.00
51439;BME280;38816;51.142;-0.974;2023-09-19T13:18:51;99103.88;;;16.80;100.00
51439;BME280;38816;51.142;-0.974;2023-09-19T13:21:32;99097.03;;;16.77;100.00
51439;BME280;38816;51.142;-0.974;2023-09-19T13:24:24;99105.53;;;16.82;100.00
51439;BME280;38816;51.142;-0.974;2023-09-19T13:26:55;99107.94;;;16.88;100.00
51439;BME280;38816;51.142;-0.974;2023-09-19T13:29:21;99102.03;;;16.83;100.00
51439;BME280;38816;51.142;-0.974;2023-09-19T13:31:51;99089.91;;;16.84;100.00
51439;BME280;38816;51.142;-0.974;2023-09-19T13:34:18;99086.22;;;16.92;100.00